Time;durP1;ratioP1;P1;durP2;ratioP2;P2;SDS_P1;SDS_P2;PMS_P1;PMS_P2;Temp;Humidity;BMP_temperature;BMP_pressure;BME280_temperature;BME280_humidity;BME280_pressure;Samples;Min_cycle;Max_cycle;Signal;HPM_P1;HPM_P2
2023/06/29 00:01:55;;;;;;;4.32;3.05;;;;;19.60;98700.00;;;;5051709;28;20044;-67
2023/06/29 00:04:25;;;;;;;3.08;2.80;;;;;19.60;98704.00;;;;5053504;28;20512;-67
2023/06/29 00:06:53;;;;;;;3.95;3.22;;;;;19.60;98697.00;;;;5053142;28;20071;-67
2023/06/29 00:09:21;;;;;;;3.58;2.78;;;;;19.60;98691.00;;;;5052666;28;20044;-66
2023/06/29 00:11:48;;;;;;;3.92;2.88;;;;;19.60;98685.00;;;;5053184;28;20115;-66
2023/06/29 00:14:15;;;;;;;4.85;2.92;;;;;19.50;98687.00;;;;5053230;28;20156;-66
2023/06/29 00:16:41;;;;;;;3.78;3.17;;;;;19.30;98683.00;;;;5051828;28;20048;-67
2023/06/29 00:19:08;;;;;;;4.25;3.10;;;;;19.30;98684.00;;;;5034500;28;20411;-66
2023/06/29 00:21:35;;;;;;;4.60;2.97;;;;;19.30;98679.00;;;;5052941;28;20045;-67
2023/06/29 00:24:02;;;;;;;3.65;3.15;;;;;19.30;98672.00;;;;5051836;28;20081;-66
2023/06/29 00:26:30;;;;;;;4.63;3.00;;;;;19.30;98674.00;;;;5053314;28;20075;-66
2023/06/29 00:28:57;;;;;;;6.78;3.50;;;;;19.20;98673.00;;;;5051358;28;20061;-66
2023/06/29 00:31:24;;;;;;;5.38;3.03;;;;;19.10;98672.00;;;;5034930;28;20056;-64
2023/06/29 00:33:51;;;;;;;5.00;3.35;;;;;19.10;98675.00;;;;5052684;28;20052;-67
2023/06/29 00:36:18;;;;;;;2.85;2.55;;;;;19.10;98673.00;;;;5052631;28;20047;-66
2023/06/29 00:38:45;;;;;;;4.32;2.80;;;;;19.00;98673.00;;;;5052179;28;20041;-68
2023/06/29 00:41:11;;;;;;;4.00;2.72;;;;;19.00;98661.00;;;;5051152;28;20045;-67
2023/06/29 00:43:38;;;;;;;5.55;3.25;;;;;19.00;98657.00;;;;5052538;28;20068;-64
2023/06/29 00:46:07;;;;;;;5.55;2.80;;;;;18.90;98660.00;;;;5052430;28;20045;-65
2023/06/29 00:48:37;;;;;;;5.80;2.92;;;;;18.80;98651.00;;;;5051384;28;20144;-69
2023/06/29 00:51:05;;;;;;;3.47;2.92;;;;;18.90;98652.00;;;;5052162;28;20557;-67
2023/06/29 00:53:33;;;;;;;3.85;3.13;;;;;18.80;98656.00;;;;5034805;28;20551;-66
2023/06/29 00:56:01;;;;;;;3.97;2.70;;;;;18.80;98653.00;;;;5034649;28;20417;-66
2023/06/29 00:58:28;;;;;;;3.70;3.13;;;;;18.80;98655.00;;;;5051207;28;20045;-64
2023/06/29 01:00:57;;;;;;;3.50;2.95;;;;;18.70;98661.00;;;;5051913;28;20497;-66
2023/06/29 01:03:25;;;;;;;5.13;3.50;;;;;18.60;98659.00;;;;5050864;28;20056;-65
2023/06/29 01:05:56;;;;;;;3.78;3.30;;;;;18.60;98652.00;;;;5050807;28;20052;-65
2023/06/29 01:08:30;;;;;;;3.63;3.05;;;;;18.70;98656.00;;;;5051924;28;20452;-65
2023/06/29 01:10:58;;;;;;;3.33;3.00;;;;;18.70;98652.00;;;;5050611;28;20045;-66
2023/06/29 01:13:28;;;;;;;7.78;3.40;;;;;18.70;98651.00;;;;5051449;28;20041;-66
2023/06/29 01:15:57;;;;;;;4.38;3.10;;;;;18.80;98656.00;;;;5052007;28;20045;-65
2023/06/29 01:18:26;;;;;;;4.22;3.00;;;;;19.00;98659.00;;;;5050460;28;20521;-66
2023/06/29 01:20:53;;;;;;;4.82;3.20;;;;;19.00;98657.00;;;;5050562;28;20124;-67
2023/06/29 01:23:29;;;;;;;6.28;3.83;;;;;19.00;98648.00;;;;5050456;28;20413;-66
2023/06/29 01:25:57;;;;;;;4.35;3.53;;;;;19.00;98653.00;;;;5050612;28;20076;-66
2023/06/29 01:28:25;;;;;;;5.07;3.50;;;;;18.70;98651.00;;;;5050630;28;20087;-66
2023/06/29 01:30:52;;;;;;;3.67;3.13;;;;;18.50;98649.00;;;;5050472;28;20067;-66
2023/06/29 01:33:22;;;;;;;4.47;3.05;;;;;18.30;98652.00;;;;5051774;28;20041;-66
2023/06/29 01:35:53;;;;;;;3.70;3.38;;;;;18.20;98639.00;;;;5051630;28;20068;-66
2023/06/29 01:38:42;;;;;;;3.92;3.55;;;;;18.40;98642.00;;;;5051491;28;20444;-66
2023/06/29 01:41:11;;;;;;;5.72;3.58;;;;;18.40;98643.00;;;;5050263;28;20143;-66
2023/06/29 01:43:38;;;;;;;4.15;3.53;;;;;18.40;98640.00;;;;5050349;28;20071;-66
2023/06/29 01:46:04;;;;;;;3.83;2.95;;;;;18.40;98636.00;;;;5051855;28;20513;-66
2023/06/29 01:48:32;;;;;;;5.18;3.10;;;;;18.40;98633.00;;;;5052643;28;20041;-66
2023/06/29 01:50:59;;;;;;;6.35;3.28;;;;;18.40;98637.00;;;;5052884;28;20445;-66
2023/06/29 01:53:27;;;;;;;4.25;3.60;;;;;18.30;98628.00;;;;5054943;28;20068;-66
2023/06/29 01:55:57;;;;;;;4.50;2.85;;;;;18.30;98631.00;;;;5054284;28;20045;-67
2023/06/29 01:58:24;;;;;;;3.83;3.33;;;;;18.40;98632.00;;;;5055135;28;20048;-66
2023/06/29 02:00:51;;;;;;;8.55;3.33;;;;;18.40;98631.00;;;;5053447;28;20052;-66
2023/06/29 02:03:18;;;;;;;4.00;3.05;;;;;18.30;98623.00;;;;5053672;28;20045;-66
2023/06/29 02:05:44;;;;;;;4.88;3.33;;;;;18.10;98627.00;;;;5054389;28;20049;-67
2023/06/29 02:08:11;;;;;;;4.60;3.30;;;;;18.00;98622.00;;;;5054785;28;20083;-66
2023/06/29 02:10:39;;;;;;;4.97;2.83;;;;;18.00;98624.00;;;;5054747;28;20087;-66
2023/06/29 02:13:05;;;;;;;4.15;3.53;;;;;18.00;98616.00;;;;5054243;28;20081;-66
2023/06/29 02:15:32;;;;;;;3.67;2.92;;;;;18.10;98612.00;;;;5056120;28;20083;-66
2023/06/29 02:18:04;;;;;;;3.63;2.78;;;;;18.20;98619.00;;;;5056894;28;20049;-66
2023/06/29 02:20:31;;;;;;;4.53;3.22;;;;;18.10;98620.00;;;;5038147;28;20053;-66
2023/06/29 02:22:57;;;;;;;4.40;3.72;;;;;18.20;98623.00;;;;5054937;28;20669;-66
2023/06/29 02:25:24;;;;;;;6.15;3.20;;;;;18.20;98619.00;;;;5060009;28;20052;-67
2023/06/29 02:27:52;;;;;;;6.88;3.20;;;;;18.10;98614.00;;;;5060884;28;20041;-66
2023/06/29 02:30:19;;;;;;;3.47;3.17;;;;;18.00;98617.00;;;;5059700;28;20068;-66
2023/06/29 02:32:46;;;;;;;4.70;3.28;;;;;18.10;98617.00;;;;5059697;28;20127;-66
2023/06/29 02:35:12;;;;;;;6.18;3.35;;;;;18.20;98619.00;;;;5058439;28;20074;-67
2023/06/29 02:37:39;;;;;;;4.10;3.70;;;;;18.30;98616.00;;;;5056709;28;20049;-67
2023/06/29 02:40:06;;;;;;;6.80;3.92;;;;;18.30;98618.00;;;;5057999;28;20116;-64
2023/06/29 02:42:33;;;;;;;4.15;3.47;;;;;18.10;98614.00;;;;5068812;28;20028;-65
2023/06/29 02:45:00;;;;;;;3.85;3.17;;;;;17.80;98614.00;;;;5080891;28;20031;-66
2023/06/29 02:47:28;;;;;;;3.78;3.40;;;;;17.70;98608.00;;;;5080794;28;20051;-65
2023/06/29 02:49:55;;;;;;;4.32;3.20;;;;;17.70;98617.00;;;;5077947;28;20051;-65
2023/06/29 02:52:22;;;;;;;4.70;3.53;;;;;17.70;98614.00;;;;5059747;28;20056;-65
2023/06/29 02:54:49;;;;;;;10.27;5.20;;;;;17.70;98613.00;;;;5054464;28;20134;-65
2023/06/29 02:57:17;;;;;;;4.47;3.42;;;;;17.70;98607.00;;;;5053734;28;20045;-65
2023/06/29 02:59:44;;;;;;;6.95;3.80;;;;;17.60;98603.00;;;;5036959;28;20505;-65
2023/06/29 03:02:10;;;;;;;4.55;3.28;;;;;17.40;98606.00;;;;5055300;28;20071;-65
2023/06/29 03:04:37;;;;;;;5.55;4.07;;;;;17.40;98600.00;;;;5053618;28;20194;-65
2023/06/29 03:07:04;;;;;;;5.05;3.50;;;;;17.50;98602.00;;;;5053613;28;20060;-66
2023/06/29 03:09:33;;;;;;;8.57;6.38;;;;;17.60;98598.00;;;;5053650;28;20041;-67
2023/06/29 03:12:00;;;;;;;5.30;3.83;;;;;17.60;98592.00;;;;5055072;28;20041;-66
2023/06/29 03:14:26;;;;;;;5.60;4.07;;;;;17.70;98585.00;;;;5054857;28;20461;-66
2023/06/29 03:16:53;;;;;;;7.43;4.30;;;;;17.70;98578.00;;;;5053338;28;20046;-66
2023/06/29 03:19:19;;;;;;;6.15;5.47;;;;;17.80;98584.00;;;;5053219;28;20116;-65
2023/06/29 03:21:46;;;;;;;4.68;4.22;;;;;18.00;98599.00;;;;5054381;28;20041;-65
2023/06/29 03:24:13;;;;;;;6.65;5.00;;;;;18.10;98601.00;;;;5054216;28;20053;-65
2023/06/29 03:26:39;;;;;;;4.93;3.88;;;;;18.20;98599.00;;;;5054301;28;20045;-67
2023/06/29 03:29:06;;;;;;;3.92;3.53;;;;;18.20;98588.00;;;;5052573;28;20109;-66
2023/06/29 03:31:32;;;;;;;4.90;3.42;;;;;18.30;98581.00;;;;5054146;28;20086;-66
2023/06/29 03:34:00;;;;;;;4.18;3.25;;;;;18.20;98588.00;;;;5054255;28;20071;-65
2023/06/29 03:36:27;;;;;;;6.13;3.58;;;;;18.10;98580.00;;;;5053000;28;20398;-65
2023/06/29 03:38:53;;;;;;;4.43;3.45;;;;;18.10;98582.00;;;;5053980;28;20067;-66
2023/06/29 03:41:20;;;;;;;5.35;3.47;;;;;18.20;98579.00;;;;5053950;28;20124;-66
2023/06/29 03:43:46;;;;;;;4.53;3.33;;;;;18.20;98576.00;;;;5052988;28;20144;-66
2023/06/29 03:46:13;;;;;;;3.50;3.20;;;;;18.30;98578.00;;;;5053835;28;20116;-66
2023/06/29 03:48:40;;;;;;;4.45;2.97;;;;;18.40;98580.00;;;;5052303;28;20064;-66
2023/06/29 03:51:06;;;;;;;4.10;3.13;;;;;18.40;98575.00;;;;5053429;28;20421;-66
2023/06/29 03:53:33;;;;;;;4.07;3.63;;;;;18.40;98577.00;;;;5053803;28;20072;-66
2023/06/29 03:56:00;;;;;;;4.82;3.47;;;;;18.40;98577.00;;;;5052422;28;20494;-66
2023/06/29 03:58:26;;;;;;;6.40;3.20;;;;;18.30;98577.00;;;;5052739;28;20431;-66
2023/06/29 04:00:53;;;;;;;4.85;3.50;;;;;18.20;98579.00;;;;5053515;28;20066;-66
2023/06/29 04:03:19;;;;;;;4.32;3.35;;;;;18.20;98582.00;;;;5052888;28;20413;-66
2023/06/29 04:05:46;;;;;;;4.30;3.38;;;;;18.20;98574.00;;;;5053937;28;20045;-66
2023/06/29 04:08:16;;;;;;;4.50;3.67;;;;;18.20;98578.00;;;;5053800;28;20041;-66
2023/06/29 04:10:42;;;;;;;5.68;3.55;;;;;18.20;98574.00;;;;5053909;28;20045;-66
2023/06/29 04:13:09;;;;;;;4.63;2.83;;;;;18.30;98579.00;;;;5054620;28;20114;-66
2023/06/29 04:15:35;;;;;;;5.32;3.50;;;;;18.30;98569.00;;;;5053665;28;20136;-67
2023/06/29 04:18:02;;;;;;;7.25;5.78;;;;;18.40;98569.00;;;;5053184;28;20041;-67
2023/06/29 04:20:29;;;;;;;7.95;5.13;;;;;18.40;98567.00;;;;5054012;28;20068;-67
2023/06/29 04:22:56;;;;;;;6.47;3.30;;;;;18.50;98567.00;;;;5054324;28;20048;-67
2023/06/29 04:25:22;;;;;;;3.80;3.25;;;;;18.60;98564.00;;;;5051867;28;20148;-67
2023/06/29 04:27:49;;;;;;;6.35;4.30;;;;;18.50;98560.00;;;;5052702;28;20119;-66
2023/06/29 04:30:17;;;;;;;4.43;3.88;;;;;18.50;98554.00;;;;5053291;28;20077;-66
2023/06/29 04:32:44;;;;;;;5.68;4.38;;;;;18.60;98557.00;;;;5053295;28;20049;-65
2023/06/29 04:35:11;;;;;;;5.68;4.32;;;;;18.70;98558.00;;;;5055339;28;20104;-65
2023/06/29 04:37:41;;;;;;;4.60;3.88;;;;;18.90;98549.00;;;;5056522;28;20132;-66
2023/06/29 04:40:09;;;;;;;5.25;3.65;;;;;18.90;98549.00;;;;5054776;28;20051;-66
2023/06/29 04:42:47;;;;;;;8.77;4.28;;;;;19.00;98554.00;;;;5056071;28;20098;-66
2023/06/29 04:45:17;;;;;;;6.82;3.90;;;;;19.20;98558.00;;;;5056800;28;20053;-65
2023/06/29 04:47:51;;;;;;;5.22;3.90;;;;;19.30;98558.00;;;;5056808;28;20109;-65
2023/06/29 04:50:24;;;;;;;6.97;4.40;;;;;19.20;98557.00;;;;5057478;28;20092;-65
2023/06/29 04:52:55;;;;;;;6.38;4.00;;;;;19.30;98560.00;;;;5054535;28;20041;-65
2023/06/29 04:55:22;;;;;;;4.75;3.88;;;;;19.40;98560.00;;;;5055638;28;20494;-66
2023/06/29 04:57:49;;;;;;;6.63;4.05;;;;;19.40;98557.00;;;;5057531;28;20498;-65
2023/06/29 05:00:16;;;;;;;5.82;4.13;;;;;19.40;98556.00;;;;5054014;28;20446;-64
2023/06/29 05:02:43;;;;;;;7.38;4.28;;;;;19.50;98549.00;;;;5057493;28;20052;-65
2023/06/29 05:05:09;;;;;;;6.45;5.45;;;;;19.50;98545.00;;;;5055027;28;20048;-65
2023/06/29 05:07:37;;;;;;;6.68;4.63;;;;;19.60;98548.00;;;;5054730;28;20520;-66
2023/06/29 05:10:05;;;;;;;5.65;4.07;;;;;19.40;98552.00;;;;5054194;28;20088;-65
2023/06/29 05:12:32;;;;;;;6.20;4.07;;;;;19.30;98549.00;;;;5052966;28;20045;-65
2023/06/29 05:14:58;;;;;;;6.60;3.92;;;;;19.30;98553.00;;;;5054539;28;20070;-66
2023/06/29 05:17:25;;;;;;;5.00;4.22;;;;;19.40;98548.00;;;;5054316;28;20051;-65
2023/06/29 05:19:52;;;;;;;6.20;3.65;;;;;19.40;98552.00;;;;5052519;28;20044;-65
2023/06/29 05:22:18;;;;;;;6.78;3.67;;;;;19.70;98548.00;;;;5057072;28;20061;-66
2023/06/29 05:24:45;;;;;;;6.53;4.03;;;;;19.90;98552.00;;;;5054154;28;20072;-65
2023/06/29 05:27:12;;;;;;;5.13;3.70;;;;;19.90;98545.00;;;;5054257;28;20040;-65
2023/06/29 05:29:38;;;;;;;5.07;4.28;;;;;19.90;98548.00;;;;5054183;28;20041;-65
2023/06/29 05:32:05;;;;;;;8.80;4.95;;;;;20.00;98555.00;;;;5054552;28;20565;-65
2023/06/29 05:34:32;;;;;;;6.65;5.30;;;;;20.10;98550.00;;;;5056791;28;20540;-66
2023/06/29 05:36:58;;;;;;;7.63;4.55;;;;;20.10;98555.00;;;;5057885;28;20064;-65
2023/06/29 05:39:27;;;;;;;11.50;7.82;;;;;20.30;98551.00;;;;5059733;28;20060;-65
2023/06/29 05:41:53;;;;;;;4.93;4.03;;;;;20.30;98552.00;;;;5055650;28;20111;-65
2023/06/29 05:44:20;;;;;;;7.15;6.40;;;;;20.50;98548.00;;;;5053356;28;20135;-65
2023/06/29 05:46:46;;;;;;;4.93;3.70;;;;;20.70;98542.00;;;;5057084;28;20041;-66
2023/06/29 05:49:13;;;;;;;4.43;3.38;;;;;21.00;98548.00;;;;5055083;28;20124;-65
2023/06/29 05:51:42;;;;;;;5.03;3.60;;;;;21.20;98545.00;;;;5054937;28;20068;-65
2023/06/29 05:54:08;;;;;;;5.85;3.78;;;;;21.40;98543.00;;;;5054163;28;20521;-66
2023/06/29 05:56:35;;;;;;;4.90;3.72;;;;;21.60;98538.00;;;;5052681;28;20057;-65
2023/06/29 05:59:02;;;;;;;4.40;3.83;;;;;21.70;98539.00;;;;5041735;28;20077;-65
2023/06/29 06:01:29;;;;;;;5.72;3.42;;;;;21.80;98540.00;;;;5060862;28;20053;-65
2023/06/29 06:03:55;;;;;;;6.40;3.45;;;;;21.60;98537.00;;;;5061814;28;20044;-66
2023/06/29 06:06:22;;;;;;;5.05;3.75;;;;;21.50;98542.00;;;;5062984;28;20494;-67
2023/06/29 06:08:49;;;;;;;5.68;3.55;;;;;21.50;98535.00;;;;5059413;28;20102;-66
2023/06/29 06:11:15;;;;;;;7.20;4.35;;;;;21.60;98537.00;;;;5062542;28;20048;-66
2023/06/29 06:13:42;;;;;;;5.07;3.42;;;;;21.70;98531.00;;;;5058933;28;20044;-66
2023/06/29 06:16:09;;;;;;;8.20;5.10;;;;;21.90;98522.00;;;;5056566;28;20502;-66
2023/06/29 06:18:35;;;;;;;8.20;3.90;;;;;22.00;98527.00;;;;5057160;28;20056;-65
2023/06/29 06:21:03;;;;;;;7.55;4.70;;;;;22.20;98523.00;;;;5055951;28;20077;-66
2023/06/29 06:23:29;;;;;;;4.97;3.58;;;;;22.40;98521.00;;;;5057064;28;20174;-65
2023/06/29 06:25:59;;;;;;;5.93;3.45;;;;;22.40;98518.00;;;;5056911;28;20502;-65
2023/06/29 06:28:26;;;;;;;4.75;3.40;;;;;22.40;98525.00;;;;5056269;28;20056;-66
2023/06/29 06:30:53;;;;;;;7.18;3.60;;;;;22.70;98524.00;;;;5056948;28;20127;-65
2023/06/29 06:33:20;;;;;;;8.00;4.22;;;;;22.80;98520.00;;;;5056849;28;20045;-65
2023/06/29 06:35:47;;;;;;;6.32;4.65;;;;;22.80;98519.00;;;;5054147;28;20033;-65
2023/06/29 06:38:14;;;;;;;6.57;4.32;;;;;22.80;98516.00;;;;5054975;28;20504;-65
2023/06/29 06:40:40;;;;;;;5.20;3.65;;;;;23.00;98523.00;;;;5053486;28;20453;-65
2023/06/29 06:43:07;;;;;;;7.03;5.05;;;;;23.00;98524.00;;;;5053746;28;20521;-65
2023/06/29 06:45:34;;;;;;;7.32;3.97;;;;;23.10;98521.00;;;;5053607;28;20216;-65
2023/06/29 06:48:00;;;;;;;7.78;3.33;;;;;23.40;98519.00;;;;5054869;28;20133;-65
2023/06/29 06:50:27;;;;;;;6.28;3.60;;;;;23.60;98522.00;;;;5053540;28;20475;-66
2023/06/29 06:52:54;;;;;;;8.77;3.55;;;;;23.60;98519.00;;;;5053350;28;20045;-66
2023/06/29 06:55:21;;;;;;;4.10;3.30;;;;;23.80;98519.00;;;;5054832;28;20045;-66
2023/06/29 06:57:47;;;;;;;7.45;3.28;;;;;24.10;98526.00;;;;5053409;28;20045;-66
2023/06/29 07:00:14;;;;;;;4.20;3.03;;;;;24.00;98528.00;;;;5053203;28;20075;-65
2023/06/29 07:02:41;;;;;;;3.05;2.53;;;;;24.00;98524.00;;;;5053632;28;20383;-66
2023/06/29 07:05:08;;;;;;;7.22;3.20;;;;;24.20;98538.00;;;;5053594;28;20449;-66
2023/06/29 07:07:35;;;;;;;6.93;3.05;;;;;24.20;98535.00;;;;5053344;28;20049;-66
2023/06/29 07:10:02;;;;;;;4.13;2.63;;;;;24.40;98535.00;;;;5052865;28;20090;-66
2023/06/29 07:12:29;;;;;;;4.85;2.80;;;;;24.30;98536.00;;;;5054762;28;20128;-66
2023/06/29 07:14:56;;;;;;;4.63;2.78;;;;;24.20;98530.00;;;;5053293;28;20068;-66
2023/06/29 07:17:22;;;;;;;6.30;3.30;;;;;24.50;98526.00;;;;5054298;28;20072;-66
2023/06/29 07:19:49;;;;;;;6.18;3.15;;;;;24.60;98534.00;;;;5052776;28;20037;-67
2023/06/29 07:22:18;;;;;;;5.15;2.53;;;;;24.60;98530.00;;;;5054692;28;20083;-67
2023/06/29 07:24:48;;;;;;;4.82;2.55;;;;;24.80;98536.00;;;;5053224;28;20049;-66
2023/06/29 07:27:15;;;;;;;5.57;2.90;;;;;24.70;98531.00;;;;5053492;28;20045;-66
2023/06/29 07:29:42;;;;;;;4.05;2.88;;;;;24.70;98526.00;;;;5053274;28;20045;-66
2023/06/29 07:32:09;;;;;;;3.28;2.60;;;;;24.80;98531.00;;;;5037115;28;20053;-66
2023/06/29 07:34:36;;;;;;;3.70;2.72;;;;;24.80;98526.00;;;;5054278;28;20053;-66
2023/06/29 07:37:03;;;;;;;4.55;2.55;;;;;24.80;98517.00;;;;5053194;28;20045;-66
2023/06/29 07:39:29;;;;;;;5.35;3.08;;;;;24.80;98517.00;;;;5053819;28;20562;-66
2023/06/29 07:41:56;;;;;;;7.45;2.80;;;;;24.80;98523.00;;;;5053098;28;20667;-66
2023/06/29 07:44:22;;;;;;;2.97;2.60;;;;;24.90;98523.00;;;;5052815;28;20545;-66
2023/06/29 07:46:49;;;;;;;7.50;2.60;;;;;25.10;98521.00;;;;5052605;28;20041;-65
2023/06/29 07:49:16;;;;;;;3.92;2.33;;;;;25.20;98515.00;;;;5053021;28;20521;-65
2023/06/29 07:51:42;;;;;;;3.97;2.35;;;;;25.30;98515.00;;;;5052262;28;20463;-65
2023/06/29 07:54:09;;;;;;;5.30;2.80;;;;;25.30;98523.00;;;;5053070;28;20049;-65
2023/06/29 07:56:36;;;;;;;5.72;2.60;;;;;25.50;98521.00;;;;5052425;28;20502;-65
2023/06/29 07:59:05;;;;;;;5.05;3.05;;;;;25.70;98515.00;;;;5052970;28;20450;-66
2023/06/29 08:01:34;;;;;;;5.25;2.80;;;;;25.90;98507.00;;;;5052179;28;20045;-65
2023/06/29 08:04:01;;;;;;;3.08;2.40;;;;;26.20;98513.00;;;;5053339;28;20486;-65
2023/06/29 08:06:31;;;;;;;5.30;2.85;;;;;26.50;98514.00;;;;5053364;28;20505;-65
2023/06/29 08:09:01;;;;;;;6.10;3.17;;;;;26.50;98517.00;;;;5052979;28;20047;-65
2023/06/29 08:11:28;;;;;;;5.90;3.35;;;;;26.50;98519.00;;;;5053300;28;20040;-65
2023/06/29 08:13:55;;;;;;;2.53;2.13;;;;;26.40;98514.00;;;;5053366;28;20060;-65
2023/06/29 08:16:22;;;;;;;7.85;2.92;;;;;26.50;98511.00;;;;5051921;28;20086;-65
2023/06/29 08:18:49;;;;;;;4.63;2.30;;;;;26.30;98510.00;;;;5053300;28;20387;-65
2023/06/29 08:21:16;;;;;;;4.10;2.53;;;;;26.40;98505.00;;;;5052496;28;20497;-66
2023/06/29 08:23:42;;;;;;;4.90;2.38;;;;;26.30;98511.00;;;;5053333;28;20414;-64
2023/06/29 08:26:09;;;;;;;6.13;2.85;;;;;26.30;98518.00;;;;5053338;28;20404;-65
2023/06/29 08:28:35;;;;;;;4.32;2.85;;;;;26.30;98515.00;;;;5053143;28;20556;-67
2023/06/29 08:31:02;;;;;;;4.88;2.58;;;;;26.40;98513.00;;;;5052666;28;20517;-65
2023/06/29 08:33:33;;;;;;;4.75;2.70;;;;;26.40;98514.00;;;;5053567;28;20505;-65
2023/06/29 08:35:59;;;;;;;9.18;3.28;;;;;26.50;98517.00;;;;5052535;28;20048;-65
2023/06/29 08:38:26;;;;;;;4.93;2.63;;;;;26.50;98520.00;;;;5053058;28;20414;-65
2023/06/29 08:40:57;;;;;;;5.80;2.90;;;;;26.60;98517.00;;;;5052601;28;20052;-66
2023/06/29 08:43:24;;;;;;;6.25;3.00;;;;;26.60;98513.00;;;;5053002;28;20043;-65
2023/06/29 08:45:51;;;;;;;6.95;3.10;;;;;26.60;98510.00;;;;5052949;28;20048;-65
2023/06/29 08:48:18;;;;;;;2.63;2.08;;;;;26.90;98519.00;;;;5052645;28;20052;-65
2023/06/29 08:50:52;;;;;;;5.45;2.20;;;;;27.10;98508.00;;;;5052808;28;20124;-66
2023/06/29 08:53:20;;;;;;;3.50;1.88;;;;;27.20;98508.00;;;;5051620;28;20448;-66
2023/06/29 08:55:48;;;;;;;5.10;4.60;;;;;27.00;98500.00;;;;5051192;28;20457;-66
2023/06/29 08:58:15;;;;;;;2.80;2.30;;;;;27.10;98503.00;;;;5051294;28;20474;-66
2023/06/29 09:00:43;;;;;;;4.28;2.63;;;;;26.90;98510.00;;;;5052389;28;20127;-66
2023/06/29 09:03:11;;;;;;;2.83;2.45;;;;;26.90;98508.00;;;;5051575;28;20151;-65
2023/06/29 09:05:38;;;;;;;3.28;1.92;;;;;26.80;98500.00;;;;5051306;28;20566;-64
2023/06/29 09:08:05;;;;;;;3.72;2.50;;;;;26.80;98496.00;;;;5049938;28;20056;-65
2023/06/29 09:10:32;;;;;;;5.63;2.50;;;;;27.20;98505.00;;;;5050856;28;20136;-65
2023/06/29 09:12:59;;;;;;;4.63;2.13;;;;;27.40;98498.00;;;;5052462;28;20075;-65
2023/06/29 09:15:27;;;;;;;2.70;2.00;;;;;27.50;98498.00;;;;5051320;28;20072;-66
2023/06/29 09:17:55;;;;;;;2.67;2.33;;;;;27.50;98498.00;;;;5052325;28;20051;-66
2023/06/29 09:20:23;;;;;;;2.13;1.67;;;;;27.60;98494.00;;;;5052038;28;20122;-65
2023/06/29 09:22:53;;;;;;;4.85;2.10;;;;;27.80;98498.00;;;;5048442;28;20163;-65
2023/06/29 09:25:21;;;;;;;4.10;3.20;;;;;28.10;98492.00;;;;5049612;28;20478;-64
2023/06/29 09:28:04;;;;;;;3.70;2.30;;;;;28.20;98500.00;;;;5035472;28;20128;-64
2023/06/29 09:30:38;;;;;;;4.78;2.15;;;;;28.10;98494.00;;;;5031112;28;20045;-64
2023/06/29 09:33:07;;;;;;;4.75;2.13;;;;;28.10;98491.00;;;;5031581;28;20649;-64
2023/06/29 09:35:37;;;;;;;2.58;2.17;;;;;28.10;98497.00;;;;5032246;28;20045;-64
2023/06/29 09:38:04;;;;;;;2.90;2.40;;;;;27.80;98495.00;;;;5031097;28;20120;-65
2023/06/29 09:40:30;;;;;;;4.72;2.25;;;;;27.50;98494.00;;;;5037743;28;20037;-65
2023/06/29 09:43:02;;;;;;;4.53;1.92;;;;;27.50;98499.00;;;;5046497;28;20506;-64
2023/06/29 09:45:30;;;;;;;2.35;1.90;;;;;27.60;98495.00;;;;5042486;28;20505;-65
2023/06/29 09:47:57;;;;;;;4.78;2.28;;;;;27.60;98496.00;;;;5050990;28;20144;-64
2023/06/29 09:50:27;;;;;;;2.63;2.00;;;;;27.80;98495.00;;;;5050228;28;20140;-65
2023/06/29 09:52:55;;;;;;;3.50;2.10;;;;;27.70;98500.00;;;;5052064;28;20621;-65
2023/06/29 09:55:29;;;;;;;3.88;2.10;;;;;27.60;98500.00;;;;5049085;28;20045;-64
2023/06/29 09:57:57;;;;;;;2.58;2.03;;;;;27.50;98497.00;;;;5043201;28;20086;-65
2023/06/29 10:00:23;;;;;;;4.07;2.53;;;;;27.40;98491.00;;;;5052274;28;20490;-65
2023/06/29 10:02:50;;;;;;;4.85;1.83;;;;;27.50;98490.00;;;;5051004;28;20712;-65
2023/06/29 10:05:17;;;;;;;2.80;1.85;;;;;27.60;98488.00;;;;5052239;28;20045;-64
2023/06/29 10:07:44;;;;;;;2.88;2.17;;;;;27.60;98484.00;;;;5051337;28;20045;-68
2023/06/29 10:10:15;;;;;;;4.60;2.05;;;;;27.50;98490.00;;;;5055950;28;20041;-66
2023/06/29 10:12:41;;;;;;;5.05;2.40;;;;;27.40;98497.00;;;;5056658;28;20098;-68
2023/06/29 10:15:09;;;;;;;3.30;2.10;;;;;27.00;98487.00;;;;5057859;28;20044;-68
2023/06/29 10:18:16;;;;;;;6.95;2.47;;;;;26.80;98487.00;;;;5057240;28;20045;-68
2023/06/29 10:20:44;;;;;;;2.92;2.00;;;;;26.80;98486.00;;;;5013833;28;20069;-68
2023/06/29 10:23:15;;;;;;;3.22;2.40;;;;;26.90;98489.00;;;;5015894;28;20081;-69
2023/06/29 10:25:48;;;;;;;5.30;2.13;;;;;27.00;98484.00;;;;5011586;28;20494;-70
2023/06/29 10:28:16;;;;;;;3.47;2.28;;;;;27.20;98486.00;;;;5057167;28;20056;-70
2023/06/29 10:30:50;;;;;;;8.30;2.80;;;;;27.50;98481.00;;;;5056468;28;20045;-70
2023/06/29 10:33:23;;;;;;;4.50;2.65;;;;;27.90;98478.00;;;;5055238;28;20072;-70
2023/06/29 10:35:57;;;;;;;4.18;2.33;;;;;28.20;98477.00;;;;5051995;28;20132;-71
2023/06/29 10:38:34;;;;;;;4.40;2.63;;;;;28.40;98487.00;;;;5051572;28;20051;-69
2023/06/29 10:41:06;;;;;;;3.72;3.13;;;;;28.40;98487.00;;;;5052556;28;20051;-68
2023/06/29 10:43:54;;;;;;;7.22;2.30;;;;;28.70;98480.00;;;;5052198;28;20095;-69
2023/06/29 10:46:42;;;;;;;7.93;3.20;;;;;29.00;98477.00;;;;5055585;28;20071;-71
2023/06/29 10:49:22;;;;;;;9.27;3.25;;;;;29.20;98473.00;;;;5055945;28;20049;-70
2023/06/29 10:51:53;;;;;;;4.60;2.17;;;;;29.20;98472.00;;;;5055330;28;20095;-70
2023/06/29 10:54:23;;;;;;;3.40;2.00;;;;;29.20;98470.00;;;;5037589;28;20102;-64
2023/06/29 10:57:01;;;;;;;5.25;2.40;;;;;29.20;98476.00;;;;5053752;28;20049;-65
2023/06/29 10:59:29;;;;;;;27.00;4.15;;;;;29.10;98470.00;;;;5054812;28;20131;-66
2023/06/29 11:01:57;;;;;;;4.93;2.40;;;;;29.10;98471.00;;;;5055016;28;20041;-65
2023/06/29 11:04:24;;;;;;;4.47;2.42;;;;;29.20;98473.00;;;;5055603;28;20391;-67
2023/06/29 11:06:51;;;;;;;6.63;2.72;;;;;29.20;98467.00;;;;5054514;28;20045;-66
2023/06/29 11:09:19;;;;;;;8.20;2.50;;;;;29.10;98472.00;;;;5054479;28;20053;-67
2023/06/29 11:11:48;;;;;;;4.68;2.20;;;;;29.10;98468.00;;;;5055166;28;20036;-66
2023/06/29 11:14:15;;;;;;;3.03;2.38;;;;;29.20;98470.00;;;;5053715;28;20090;-68
2023/06/29 11:16:42;;;;;;;4.35;2.22;;;;;29.00;98463.00;;;;5054743;28;20091;-68
2023/06/29 11:19:11;;;;;;;5.10;2.90;;;;;29.10;98466.00;;;;5053290;28;20513;-67
2023/06/29 11:21:40;;;;;;;6.22;2.30;;;;;29.10;98460.00;;;;5053497;28;20049;-67
2023/06/29 11:24:09;;;;;;;11.05;3.42;;;;;29.20;98461.00;;;;5054769;28;20577;-67
2023/06/29 11:26:36;;;;;;;4.28;3.10;;;;;29.40;98468.00;;;;5054783;28;20037;-67
2023/06/29 11:29:06;;;;;;;3.38;2.95;;;;;29.20;98467.00;;;;5053193;28;20072;-67
2023/06/29 11:31:32;;;;;;;5.10;2.80;;;;;29.10;98468.00;;;;5054751;28;20124;-67
2023/06/29 11:34:00;;;;;;;4.57;2.53;;;;;29.20;98460.00;;;;5054121;28;20059;-67
2023/06/29 11:36:32;;;;;;;3.38;2.60;;;;;29.30;98462.00;;;;5054521;28;20053;-66
2023/06/29 11:39:08;;;;;;;5.35;2.90;;;;;29.30;98456.00;;;;5053774;28;20041;-66
2023/06/29 11:41:39;;;;;;;3.95;2.90;;;;;29.10;98456.00;;;;5053946;28;20410;-63
2023/06/29 11:44:07;;;;;;;4.22;3.20;;;;;28.90;98456.00;;;;5053864;28;20123;-64
2023/06/29 11:46:39;;;;;;;6.45;3.35;;;;;28.80;98458.00;;;;5053028;28;20049;-65
2023/06/29 11:49:06;;;;;;;5.75;3.30;;;;;28.80;98452.00;;;;5053834;28;20087;-64
2023/06/29 11:51:38;;;;;;;5.93;3.08;;;;;28.70;98444.00;;;;5053893;28;20040;-65
2023/06/29 11:54:06;;;;;;;;;;;;;28.70;98447.00;;;;5054147;28;20111;-66
2023/06/29 11:56:40;;;;;;;6.22;3.22;;;;;28.60;98439.00;;;;5053594;28;19924;-66
2023/06/29 11:59:10;;;;;;;5.10;3.10;;;;;28.90;98440.00;;;;5052420;28;20064;-66
2023/06/29 12:01:39;;;;;;;5.57;2.70;;;;;29.10;98444.00;;;;5052573;28;20044;-66
2023/06/29 12:04:09;;;;;;;6.63;3.50;;;;;29.30;98437.00;;;;5053738;28;20071;-68
2023/06/29 12:06:36;;;;;;;4.57;3.60;;;;;29.50;98432.00;;;;5053723;28;20048;-69
2023/06/29 12:09:12;;;;;;;5.15;3.70;;;;;29.80;98434.00;;;;5051898;28;20091;-68
2023/06/29 12:11:39;;;;;;;6.18;3.78;;;;;29.80;98426.00;;;;5054613;28;20055;-72
2023/06/29 12:14:09;;;;;;;5.55;3.45;;;;;29.90;98426.00;;;;5053972;28;20044;-68
2023/06/29 12:16:41;;;;;;;6.95;3.63;;;;;29.90;98427.00;;;;5055550;28;20075;-69
2023/06/29 12:19:12;;;;;;;6.50;3.15;;;;;30.10;98420.00;;;;5053418;28;20393;-69
2023/06/29 12:21:39;;;;;;;3.67;3.10;;;;;30.10;98426.00;;;;5052842;28;20448;-69
2023/06/29 12:24:06;;;;;;;4.22;3.75;;;;;29.90;98420.00;;;;5053470;28;20049;-69